Time,TemperatureF,DewpointF,PressureIn,WindDirection,WindDirectionDegrees,WindSpeedMPH,WindSpeedGustMPH,Humidity,HourlyPrecipIn,Conditions,Clouds,dailyrainin,SoftwareType,DateUTC
2013-01-26 00:01:00,39.0,38.0,30.19,North,0,0.0,0.0,95,0.07,,,0.21,,2013-01-26 07:01:00,
2013-01-26 00:11:00,39.0,38.0,30.19,North,0,0.0,0.0,95,0.07,,,0.21,,2013-01-26 07:11:00,
2013-01-26 00:21:00,39.0,38.0,30.19,North,0,0.0,0.0,95,0.07,,,0.21,,2013-01-26 07:21:00,
2013-01-26 00:32:00,39.0,38.0,30.17,North,0,0.0,2.0,96,0.13,,,0.29,,2013-01-26 07:32:00,
2013-01-26 00:41:00,39.0,38.0,30.17,North,0,0.0,2.0,96,0.13,,,0.29,,2013-01-26 07:41:00,
2013-01-26 00:51:00,39.0,38.0,30.16,North,0,0.0,0.0,96,0.10,,,0.30,,2013-01-26 07:51:00,
2013-01-26 01:02:00,39.0,38.0,30.16,North,0,0.0,0.0,96,0.10,,,0.32,,2013-01-26 08:02:00,
2013-01-26 01:11:00,39.0,38.0,30.16,North,0,0.0,0.0,96,0.10,,,0.32,,2013-01-26 08:11:00,
2013-01-26 01:21:00,39.0,38.0,30.16,North,0,0.0,0.0,96,0.10,,,0.32,,2013-01-26 08:21:00,
2013-01-26 01:31:00,39.0,38.0,30.14,East,79,2.0,4.0,96,0.05,,,0.34,,2013-01-26 08:31:00,
2013-01-26 01:41:00,39.0,38.0,30.14,East,79,2.0,4.0,96,0.05,,,0.34,,2013-01-26 08:41:00,
2013-01-26 01:53:00,39.0,38.0,30.13,North,10,2.0,4.0,96,0.05,,,0.35,,2013-01-26 08:53:00,
2013-01-26 02:01:00,39.0,38.0,30.13,North,7,2.0,4.0,96,0.05,,,0.36,,2013-01-26 09:01:00,
2013-01-26 02:11:00,39.0,38.0,30.13,North,7,2.0,4.0,96,0.05,,,0.36,,2013-01-26 09:11:00,
2013-01-26 02:22:00,40.0,39.0,30.14,ESE,111,1.0,2.0,96,0.10,,,0.42,,2013-01-26 09:22:00,
2013-01-26 02:31:00,40.0,39.0,30.14,North,0,0.0,2.0,96,0.11,,,0.44,,2013-01-26 09:31:00,
2013-01-26 02:42:00,40.0,39.0,30.14,North,0,0.0,2.0,96,0.11,,,0.44,,2013-01-26 09:42:00,
2013-01-26 02:51:00,40.0,39.0,30.13,North,0,0.0,2.0,96,0.13,,,0.49,,2013-01-26 09:51:00,
2013-01-26 03:01:00,39.0,38.0,30.11,North,0,0.0,2.0,96,0.13,,,0.51,,2013-01-26 10:01:00,
2013-01-26 03:11:00,39.0,38.0,30.11,North,0,0.0,2.0,96,0.13,,,0.51,,2013-01-26 10:11:00,
2013-01-26 03:21:00,39.0,38.0,30.10,North,6,3.0,4.0,96,0.10,,,0.51,,2013-01-26 10:21:00,
2013-01-26 03:31:00,40.0,39.0,30.09,North,1,2.0,3.0,96,0.07,,,0.53,,2013-01-26 10:31:00,
2013-01-26 03:42:00,40.0,39.0,30.09,North,1,2.0,3.0,96,0.07,,,0.53,,2013-01-26 10:42:00,
2013-01-26 03:52:00,39.0,38.0,30.09,North,1,2.0,4.0,96,0.06,,,0.54,,2013-01-26 10:52:00,
2013-01-26 04:01:00,40.0,39.0,30.07,North,6,2.0,4.0,96,0.05,,,0.55,,2013-01-26 11:01:00,
2013-01-26 04:12:00,40.0,39.0,30.07,North,6,2.0,4.0,96,0.05,,,0.55,,2013-01-26 11:12:00,
2013-01-26 04:21:00,40.0,39.0,30.06,North,0,0.0,2.0,96,0.05,,,0.57,,2013-01-26 11:21:00,
2013-01-26 04:32:00,40.0,39.0,30.06,North,0,0.0,0.0,96,0.05,,,0.58,,2013-01-26 11:32:00,
2013-01-26 04:42:00,40.0,39.0,30.06,North,0,0.0,0.0,96,0.05,,,0.58,,2013-01-26 11:42:00,
2013-01-26 04:52:00,39.0,38.0,30.05,North,0,0.0,2.0,96,0.04,,,0.58,,2013-01-26 11:52:00,
2013-01-26 05:01:00,39.0,38.0,30.04,North,0,0.0,1.0,96,0.04,,,0.59,,2013-01-26 12:01:00,
2013-01-26 05:12:00,39.0,38.0,30.04,North,0,0.0,1.0,96,0.04,,,0.59,,2013-01-26 12:12:00,
2013-01-26 05:22:00,39.0,38.0,30.05,North,0,0.0,0.0,96,0.03,,,0.59,,2013-01-26 12:22:00,
2013-01-26 05:32:00,39.0,38.0,30.04,North,0,0.0,0.0,96,0.03,,,0.60,,2013-01-26 12:32:00,
2013-01-26 05:42:00,39.0,38.0,30.04,North,0,0.0,0.0,96,0.03,,,0.60,,2013-01-26 12:42:00,
2013-01-26 05:52:00,39.0,38.0,30.04,North,0,0.0,0.0,96,0.03,,,0.61,,2013-01-26 12:52:00,
2013-01-26 06:03:00,39.0,38.0,30.03,North,0,0.0,1.0,96,0.04,,,0.63,,2013-01-26 13:03:00,
2013-01-26 06:12:00,39.0,38.0,30.03,North,0,0.0,1.0,96,0.04,,,0.63,,2013-01-26 13:12:00,
2013-01-26 06:22:00,39.0,38.0,30.03,North,0,0.0,0.0,97,0.05,,,0.64,,2013-01-26 13:22:00,
2013-01-26 06:32:00,39.0,38.0,30.03,North,0,0.0,0.0,97,0.06,,,0.67,,2013-01-26 13:32:00,
2013-01-26 06:42:00,39.0,38.0,30.03,North,0,0.0,0.0,97,0.06,,,0.67,,2013-01-26 13:42:00,
2013-01-26 06:52:00,39.0,38.0,30.03,North,0,0.0,2.0,97,0.06,,,0.68,,2013-01-26 13:52:00,
2013-01-26 07:02:00,39.0,38.0,30.03,North,0,0.0,2.0,97,0.06,,,0.69,,2013-01-26 14:02:00,
2013-01-26 07:11:00,39.0,38.0,30.03,North,0,0.0,2.0,97,0.06,,,0.69,,2013-01-26 14:11:00,
2013-01-26 07:21:00,39.0,38.0,30.03,North,0,0.0,2.0,97,0.07,,,0.70,,2013-01-26 14:21:00,
2013-01-26 07:31:00,39.0,38.0,30.02,NNE,22,1.0,3.0,97,0.06,,,0.72,,2013-01-26 14:31:00,
2013-01-26 07:42:00,39.0,38.0,30.02,NNE,22,1.0,3.0,97,0.06,,,0.72,,2013-01-26 14:42:00,
2013-01-26 07:52:00,39.0,38.0,30.02,North,0,0.0,2.0,97,0.05,,,0.73,,2013-01-26 14:52:00,
2013-01-26 08:02:00,39.0,38.0,30.02,North,0,0.0,0.0,97,0.04,,,0.74,,2013-01-26 15:02:00,
2013-01-26 08:11:00,39.0,38.0,30.02,North,0,0.0,0.0,97,0.04,,,0.74,,2013-01-26 15:11:00,
2013-01-26 08:21:00,39.0,38.0,30.01,North,0,0.0,0.0,97,0.03,,,0.74,,2013-01-26 15:21:00,
2013-01-26 08:32:00,39.0,38.0,30.01,North,0,0.0,0.0,97,0.03,,,0.74,,2013-01-26 15:32:00,
2013-01-26 08:42:00,39.0,38.0,30.01,North,0,0.0,0.0,97,0.03,,,0.74,,2013-01-26 15:42:00,
2013-01-26 08:52:00,39.0,38.0,30.02,North,0,0.0,0.0,97,0.06,,,0.78,,2013-01-26 15:52:00,
2013-01-26 09:02:00,39.0,38.0,30.01,North,0,0.0,0.0,97,0.06,,,0.80,,2013-01-26 16:02:00,
2013-01-26 09:12:00,39.0,38.0,30.01,North,0,0.0,0.0,97,0.06,,,0.80,,2013-01-26 16:12:00,
2013-01-26 09:21:00,39.0,38.0,30.01,North,0,0.0,0.0,97,0.06,,,0.80,,2013-01-26 16:21:00,
2013-01-26 09:32:00,39.0,38.0,30.01,North,0,0.0,0.0,97,0.06,,,0.80,,2013-01-26 16:32:00,
2013-01-26 09:42:00,39.0,38.0,30.01,North,0,0.0,0.0,97,0.06,,,0.80,,2013-01-26 16:42:00,
2013-01-26 10:03:00,41.0,40.0,29.99,SSW,202,1.0,6.0,97,0.03,,,0.84,,2013-01-26 17:03:00,
2013-01-26 10:12:00,41.0,40.0,29.99,SSW,202,1.0,6.0,97,0.03,,,0.84,,2013-01-26 17:12:00,
2013-01-26 10:22:00,41.0,40.0,29.99,SSW,202,1.0,6.0,97,0.03,,,0.84,,2013-01-26 17:22:00,
2013-01-26 10:32:00,43.0,42.0,29.98,SW,223,4.0,10.0,97,0.03,,,0.86,,2013-01-26 17:32:00,
2013-01-26 10:41:00,43.0,42.0,29.98,SW,223,4.0,10.0,97,0.03,,,0.86,,2013-01-26 17:41:00,
2013-01-26 10:53:00,43.0,42.0,29.98,SW,219,4.0,10.0,97,0.04,,,0.87,,2013-01-26 17:53:00,
2013-01-26 11:02:00,43.0,42.0,30.00,SSW,209,3.0,10.0,97,0.04,,,0.88,,2013-01-26 18:02:00,
2013-01-26 11:11:00,43.0,42.0,30.00,SSW,209,3.0,10.0,97,0.04,,,0.88,,2013-01-26 18:11:00,
2013-01-26 11:21:00,44.0,43.0,30.00,SW,214,4.0,10.0,95,0.04,,,0.89,,2013-01-26 18:21:00,
2013-01-26 11:32:00,44.0,43.0,29.99,SW,217,5.0,11.0,95,0.05,,,0.90,,2013-01-26 18:32:00,
2013-01-26 11:41:00,44.0,43.0,29.99,SW,217,5.0,11.0,95,0.05,,,0.90,,2013-01-26 18:41:00,
2013-01-26 11:52:00,44.0,42.0,29.99,SW,223,5.0,12.0,94,0.03,,,0.90,,2013-01-26 18:52:00,
2013-01-26 12:02:00,44.0,42.0,29.98,SW,215,7.0,15.0,93,0.04,,,0.92,,2013-01-26 19:02:00,
2013-01-26 12:11:00,44.0,42.0,29.98,SW,215,7.0,15.0,93,0.04,,,0.92,,2013-01-26 19:11:00,
2013-01-26 12:22:00,44.0,42.0,29.98,SW,220,5.0,10.0,93,0.04,,,0.93,,2013-01-26 19:22:00,
2013-01-26 12:32:00,44.0,42.0,29.97,SW,230,4.0,8.0,93,0.04,,,0.94,,2013-01-26 19:32:00,
2013-01-26 12:42:00,44.0,42.0,29.97,SW,230,4.0,8.0,93,0.04,,,0.94,,2013-01-26 19:42:00,
2013-01-26 12:52:00,43.0,41.0,29.93,SW,220,6.0,13.0,93,0.04,,,0.95,,2013-01-26 19:52:00,
2013-01-26 13:02:00,43.0,41.0,29.93,SW,220,6.0,13.0,93,0.04,,,0.95,,2013-01-26 20:02:00,
2013-01-26 13:11:00,43.0,41.0,29.93,SW,220,6.0,13.0,93,0.04,,,0.95,,2013-01-26 20:11:00,
2013-01-26 13:21:00,43.0,41.0,29.93,SSW,207,4.0,9.0,93,0.05,,,0.98,,2013-01-26 20:21:00,
2013-01-26 13:32:00,43.0,41.0,29.92,SW,217,5.0,15.0,93,0.06,,,1.00,,2013-01-26 20:32:00,
2013-01-26 13:42:00,43.0,41.0,29.92,SW,217,5.0,15.0,93,0.06,,,1.00,,2013-01-26 20:42:00,
2013-01-26 13:52:00,43.0,41.0,29.91,SW,223,7.0,12.0,93,0.06,,,1.02,,2013-01-26 20:52:00,
2013-01-26 14:02:00,43.0,41.0,29.91,SW,216,7.0,14.0,93,0.06,,,1.03,,2013-01-26 21:02:00,
2013-01-26 14:11:00,43.0,41.0,29.91,SW,216,7.0,14.0,93,0.06,,,1.03,,2013-01-26 21:11:00,
2013-01-26 14:22:00,42.0,40.0,29.90,SSW,206,6.0,18.0,93,0.07,,,1.05,,2013-01-26 21:22:00,
2013-01-26 14:31:00,42.0,40.0,29.90,SW,229,6.0,13.0,91,0.06,,,1.06,,2013-01-26 21:31:00,
2013-01-26 14:42:00,42.0,40.0,29.90,SW,229,6.0,13.0,91,0.06,,,1.06,,2013-01-26 21:42:00,
2013-01-26 14:52:00,42.0,40.0,29.90,SW,231,6.0,13.0,91,0.05,,,1.05,,2013-01-26 21:52:00,
2013-01-26 15:01:00,42.0,40.0,29.91,SW,218,6.0,13.0,91,0.04,,,1.06,,2013-01-26 22:01:00,
2013-01-26 15:11:00,42.0,40.0,29.91,SW,218,6.0,13.0,91,0.04,,,1.06,,2013-01-26 22:11:00,
2013-01-26 15:21:00,41.0,39.0,29.92,SW,216,5.0,13.0,91,0.03,,,1.07,,2013-01-26 22:21:00,
2013-01-26 15:31:00,41.0,39.0,29.92,SW,218,6.0,17.0,92,0.03,,,1.08,,2013-01-26 22:31:00,
2013-01-26 15:41:00,41.0,39.0,29.92,SW,218,6.0,17.0,92,0.03,,,1.08,,2013-01-26 22:41:00,
2013-01-26 15:52:00,41.0,39.0,29.92,SW,224,7.0,15.0,92,0.04,,,1.09,,2013-01-26 22:52:00,
2013-01-26 16:01:00,42.0,40.0,29.90,SW,234,2.0,11.0,93,0.04,,,1.10,,2013-01-26 23:01:00,
2013-01-26 16:11:00,42.0,40.0,29.90,SW,234,2.0,11.0,93,0.04,,,1.10,,2013-01-26 23:11:00,
2013-01-26 16:21:00,42.0,40.0,29.90,SW,221,3.0,12.0,92,0.04,,,1.11,,2013-01-26 23:21:00,
2013-01-26 16:32:00,42.0,40.0,29.90,SSW,209,7.0,12.0,93,0.04,,,1.12,,2013-01-26 23:32:00,
2013-01-26 16:41:00,42.0,40.0,29.90,SSW,209,7.0,12.0,93,0.04,,,1.12,,2013-01-26 23:41:00,
2013-01-26 16:52:00,42.0,40.0,29.90,SSW,212,4.0,12.0,94,0.03,,,1.12,,2013-01-26 23:52:00,
2013-01-26 17:01:00,42.0,40.0,29.90,SSW,205,7.0,12.0,93,0.03,,,1.12,,2013-01-27 00:01:00,
2013-01-26 17:11:00,42.0,40.0,29.90,SSW,205,7.0,12.0,93,0.03,,,1.12,,2013-01-27 00:11:00,
2013-01-26 17:21:00,42.0,40.0,29.90,SSW,205,7.0,12.0,93,0.03,,,1.12,,2013-01-27 00:21:00,
2013-01-26 17:32:00,42.0,40.0,29.90,SSW,208,6.0,17.0,92,0.01,,,1.13,,2013-01-27 00:32:00,
2013-01-26 17:42:00,42.0,40.0,29.90,SSW,208,6.0,17.0,92,0.01,,,1.13,,2013-01-27 00:42:00,
2013-01-26 17:52:00,42.0,40.0,29.91,SW,220,6.0,19.0,93,0.01,,,1.13,,2013-01-27 00:52:00,
2013-01-26 18:01:00,42.0,40.0,29.91,SSW,210,7.0,14.0,93,0.00,,,1.13,,2013-01-27 01:01:00,
2013-01-26 18:11:00,42.0,40.0,29.91,SSW,210,7.0,14.0,93,0.00,,,1.13,,2013-01-27 01:11:00,
2013-01-26 18:22:00,42.0,40.0,29.91,SSW,210,7.0,14.0,93,0.00,,,1.13,,2013-01-27 01:22:00,
2013-01-26 18:31:00,41.0,39.0,29.92,SSW,210,8.0,15.0,93,0.01,,,1.14,,2013-01-27 01:31:00,
2013-01-26 18:41:00,41.0,39.0,29.92,SSW,210,8.0,15.0,93,0.01,,,1.14,,2013-01-27 01:41:00,
2013-01-26 18:52:00,41.0,39.0,29.93,SSW,213,6.0,15.0,93,0.01,,,1.14,,2013-01-27 01:52:00,
2013-01-26 19:01:00,41.0,39.0,29.93,SSW,213,6.0,15.0,93,0.01,,,1.14,,2013-01-27 02:01:00,
2013-01-26 19:11:00,41.0,39.0,29.93,SSW,213,6.0,15.0,93,0.01,,,1.14,,2013-01-27 02:11:00,
2013-01-26 19:21:00,41.0,39.0,29.93,SW,214,3.0,15.0,93,0.02,,,1.15,,2013-01-27 02:21:00,
2013-01-26 19:31:00,41.0,39.0,29.93,SW,214,3.0,15.0,93,0.02,,,1.15,,2013-01-27 02:31:00,
2013-01-26 19:41:00,41.0,39.0,29.93,SW,214,3.0,15.0,93,0.02,,,1.15,,2013-01-27 02:41:00,
2013-01-26 19:52:00,41.0,39.0,29.93,SW,214,3.0,15.0,93,0.02,,,1.15,,2013-01-27 02:52:00,
2013-01-26 20:21:00,41.0,39.0,29.95,SW,224,6.0,12.0,93,0.01,,,1.16,,2013-01-27 03:21:00,
2013-01-26 20:31:00,41.0,39.0,29.95,SW,225,6.0,12.0,93,0.01,,,1.16,,2013-01-27 03:31:00,
2013-01-26 20:41:00,41.0,39.0,29.95,SW,225,6.0,12.0,93,0.01,,,1.16,,2013-01-27 03:41:00,
2013-01-26 20:51:00,41.0,39.0,29.95,SW,225,6.0,12.0,93,0.01,,,1.16,,2013-01-27 03:51:00,
2013-01-26 21:01:00,41.0,39.0,29.95,SW,224,6.0,13.0,93,0.01,,,1.14,,2013-01-27 04:01:00,
2013-01-26 21:11:00,41.0,39.0,29.95,SW,224,6.0,13.0,93,0.01,,,1.14,,2013-01-27 04:11:00,
2013-01-26 21:21:00,41.0,39.0,29.96,SW,229,7.0,15.0,93,0.01,,,1.15,,2013-01-27 04:21:00,
2013-01-26 21:31:00,41.0,39.0,29.96,SW,228,4.0,17.0,92,0.01,,,1.15,,2013-01-27 04:31:00,
2013-01-26 21:41:00,41.0,39.0,29.96,SW,228,4.0,17.0,92,0.01,,,1.15,,2013-01-27 04:41:00,
2013-01-26 21:52:00,41.0,39.0,29.96,SW,225,7.0,12.0,93,0.01,,,1.14,,2013-01-27 04:52:00,
2013-01-26 22:02:00,40.0,38.0,29.98,SW,224,5.0,12.0,93,0.01,,,1.12,,2013-01-27 05:02:00,
2013-01-26 22:11:00,40.0,38.0,29.98,SW,224,5.0,12.0,93,0.01,,,1.12,,2013-01-27 05:11:00,
2013-01-26 22:22:00,40.0,38.0,29.99,SW,230,3.0,15.0,93,0.00,,,1.10,,2013-01-27 05:22:00,
2013-01-26 22:31:00,40.0,38.0,29.99,WSW,238,4.0,11.0,93,0.00,,,1.09,,2013-01-27 05:31:00,
2013-01-26 22:41:00,40.0,38.0,29.99,WSW,238,4.0,11.0,93,0.00,,,1.09,,2013-01-27 05:41:00,
2013-01-26 22:52:00,40.0,38.0,29.99,SW,224,6.0,13.0,93,0.01,,,1.07,,2013-01-27 05:52:00,
2013-01-26 23:01:00,40.0,38.0,29.99,SW,224,6.0,13.0,93,0.01,,,1.07,,2013-01-27 06:01:00,
2013-01-26 23:11:00,40.0,38.0,29.99,SW,224,6.0,13.0,93,0.01,,,1.07,,2013-01-27 06:11:00,
2013-01-26 23:21:00,40.0,38.0,29.99,SW,220,3.0,10.0,93,0.01,,,1.05,,2013-01-27 06:21:00,
2013-01-26 23:31:00,40.0,38.0,30.00,SSW,207,4.0,10.0,93,0.00,,,1.04,,2013-01-27 06:31:00,
2013-01-26 23:41:00,40.0,38.0,30.00,SSW,207,4.0,10.0,93,0.00,,,1.04,,2013-01-27 06:41:00,
2013-01-26 23:51:00,40.0,38.0,29.99,SSW,204,3.0,8.0,94,0.00,,,1.01,,2013-01-27 06:51:00,